Time;durP1;ratioP1;P1;durP2;ratioP2;P2;SDS_P1;SDS_P2;PMS_P1;PMS_P2;Temp;Humidity;BMP_temperature;BMP_pressure;BME280_temperature;BME280_humidity;BME280_pressure;Samples;Min_cycle;Max_cycle;Signal;HPM_P1;HPM_P2
2021/11/15 00:01:21;;;;;;;15.20;8.07;;;8.30;99.90;;;;;;5013049;28;20360;-65
2021/11/15 00:03:48;;;;;;;14.38;7.55;;;8.30;99.90;;;;;;5012334;28;20092;-65
2021/11/15 00:06:15;;;;;;;13.38;8.07;;;8.40;99.90;;;;;;5011868;28;20057;-65
2021/11/15 00:08:42;;;;;;;15.88;8.43;;;8.40;99.90;;;;;;5012570;28;20498;-65
2021/11/15 00:11:10;;;;;;;15.70;8.50;;;8.40;99.90;;;;;;5012807;28;20132;-65
2021/11/15 00:13:37;;;;;;;15.07;8.15;;;8.30;99.90;;;;;;5012446;28;20080;-65
2021/11/15 00:16:06;;;;;;;15.60;8.18;;;8.40;99.90;;;;;;5012694;28;20432;-65
2021/11/15 00:18:34;;;;;;;15.02;8.50;;;8.30;99.90;;;;;;5012463;28;20132;-68
2021/11/15 00:21:01;;;;;;;14.18;8.15;;;8.30;99.90;;;;;;5012406;28;20502;-68
2021/11/15 00:23:28;;;;;;;15.88;8.63;;;8.30;99.90;;;;;;5011992;28;20057;-68
2021/11/15 00:25:55;;;;;;;17.05;9.45;;;8.30;99.90;;;;;;5012020;28;20054;-68
2021/11/15 00:28:22;;;;;;;17.17;9.25;;;8.30;99.90;;;;;;5012437;28;20583;-65
2021/11/15 00:30:49;;;;;;;15.98;8.93;;;8.20;99.90;;;;;;5012388;28;20399;-65
2021/11/15 00:33:17;;;;;;;15.18;8.88;;;8.30;99.90;;;;;;5012099;28;20470;-66
2021/11/15 00:35:44;;;;;;;15.95;8.63;;;8.20;99.90;;;;;;5011712;28;20076;-66
2021/11/15 00:38:11;;;;;;;13.68;7.35;;;8.20;99.90;;;;;;5011719;28;20061;-66
2021/11/15 00:40:38;;;;;;;12.45;7.10;;;8.30;99.90;;;;;;5012000;28;20449;-66
2021/11/15 00:43:06;;;;;;;14.23;7.43;;;8.30;99.90;;;;;;5012097;28;20050;-66
2021/11/15 00:45:34;;;;;;;14.10;7.68;;;8.30;99.90;;;;;;5011561;28;20518;-66
2021/11/15 00:48:01;;;;;;;15.00;8.70;;;8.30;99.90;;;;;;5011927;28;20497;-66
2021/11/15 00:50:30;;;;;;;15.27;8.52;;;8.30;99.90;;;;;;5012089;28;20089;-66
2021/11/15 00:52:57;;;;;;;17.13;9.13;;;8.20;99.90;;;;;;5011975;28;20058;-66
2021/11/15 00:55:25;;;;;;;16.95;8.52;;;8.30;99.90;;;;;;5011581;28;20048;-66
2021/11/15 00:57:52;;;;;;;14.43;8.40;;;8.20;99.90;;;;;;5011985;28;20494;-66
2021/11/15 01:00:23;;;;;;;14.88;8.25;;;8.20;99.90;;;;;;5011826;28;20453;-66
2021/11/15 01:02:50;;;;;;;16.90;8.90;;;8.20;99.90;;;;;;5011666;28;20049;-66
2021/11/15 01:05:18;;;;;;;16.45;8.75;;;8.30;99.90;;;;;;5010979;28;20054;-66
2021/11/15 01:07:47;;;;;;;14.93;8.77;;;8.20;99.90;;;;;;5011480;28;20502;-66
2021/11/15 01:10:16;;;;;;;15.23;9.30;;;8.20;99.90;;;;;;5011969;28;20120;-66
2021/11/15 01:12:44;;;;;;;15.23;8.75;;;8.20;99.90;;;;;;5011504;28;20050;-66
2021/11/15 01:15:15;;;;;;;14.38;7.25;;;8.20;99.90;;;;;;5011257;28;20108;-66
2021/11/15 01:17:42;;;;;;;15.70;8.63;;;8.20;99.90;;;;;;5023347;28;20050;-66
2021/11/15 01:20:12;;;;;;;14.48;8.38;;;8.20;99.90;;;;;;5020567;28;20058;-66
2021/11/15 01:22:39;;;;;;;15.82;9.15;;;8.20;99.90;;;;;;5011559;28;20367;-66
2021/11/15 01:25:10;;;;;;;14.20;8.45;;;8.20;99.90;;;;;;5011149;28;20100;-66
2021/11/15 01:27:38;;;;;;;14.55;8.50;;;8.20;99.90;;;;;;5011435;28;20478;-66
2021/11/15 01:30:07;;;;;;;16.95;9.13;;;8.20;99.90;;;;;;5011370;28;20103;-66
2021/11/15 01:32:34;;;;;;;17.23;9.27;;;8.20;99.90;;;;;;5011229;28;20057;-66
2021/11/15 01:35:01;;;;;;;14.45;7.80;;;8.10;99.90;;;;;;5010622;28;20058;-66
2021/11/15 01:37:29;;;;;;;14.30;7.75;;;8.10;99.90;;;;;;5010864;28;20112;-66
2021/11/15 01:39:57;;;;;;;13.15;8.00;;;8.10;99.90;;;;;;5011170;28;20478;-66
2021/11/15 01:42:25;;;;;;;17.13;7.95;;;8.20;99.90;;;;;;5011156;28;20544;-66
2021/11/15 01:44:52;;;;;;;15.70;8.93;;;8.30;99.90;;;;;;5010932;28;20050;-66
2021/11/15 01:47:19;;;;;;;14.35;7.80;;;8.20;99.90;;;;;;5010677;28;20046;-66
2021/11/15 01:49:46;;;;;;;16.25;8.80;;;8.20;99.90;;;;;;5011249;28;20042;-66
2021/11/15 01:52:13;;;;;;;16.52;9.30;;;8.30;99.90;;;;;;5010589;28;20498;-66
2021/11/15 01:54:40;;;;;;;16.30;9.18;;;8.20;99.90;;;;;;5011353;28;20046;-67
2021/11/15 01:57:08;;;;;;;17.13;8.57;;;8.20;99.90;;;;;;5010599;28;20046;-67
2021/11/15 01:59:36;;;;;;;16.67;9.18;;;8.20;99.90;;;;;;5010740;28;20140;-67
2021/11/15 02:02:03;;;;;;;16.20;8.93;;;8.20;99.90;;;;;;5010833;28;20056;-67
2021/11/15 02:04:30;;;;;;;15.90;8.38;;;8.20;99.90;;;;;;5011020;28;20139;-68
2021/11/15 02:06:58;;;;;;;16.13;8.35;;;8.20;99.90;;;;;;5011446;28;20465;-68
2021/11/15 02:09:27;;;;;;;15.65;9.07;;;8.10;99.90;;;;;;5010811;28;20204;-67
2021/11/15 02:11:54;;;;;;;16.98;9.10;;;8.10;99.90;;;;;;5010554;28;20058;-67
2021/11/15 02:14:21;;;;;;;17.15;10.02;;;8.10;99.90;;;;;;5010588;28;20062;-67
2021/11/15 02:16:49;;;;;;;15.43;8.88;;;8.10;99.90;;;;;;5009787;28;20053;-67
2021/11/15 02:19:16;;;;;;;17.25;9.82;;;8.10;99.90;;;;;;5010197;28;20053;-67
2021/11/15 02:21:45;;;;;;;15.68;9.32;;;8.10;99.90;;;;;;5010293;28;20046;-67
2021/11/15 02:24:12;;;;;;;15.50;9.20;;;8.10;99.90;;;;;;5010385;28;20054;-67
2021/11/15 02:26:39;;;;;;;16.17;8.98;;;8.20;99.90;;;;;;5010250;28;20053;-68
2021/11/15 02:29:06;;;;;;;16.60;8.95;;;8.20;99.90;;;;;;5010011;28;20050;-68
2021/11/15 02:31:33;;;;;;;19.05;9.80;;;8.10;99.90;;;;;;5010366;28;20054;-67
2021/11/15 02:34:00;;;;;;;15.93;9.20;;;8.20;99.90;;;;;;5009663;28;20100;-68
2021/11/15 02:36:29;;;;;;;17.20;9.98;;;8.20;99.90;;;;;;5009556;28;20057;-67
2021/11/15 02:38:58;;;;;;;16.85;9.55;;;8.10;99.90;;;;;;5009970;28;20050;-67
2021/11/15 02:41:26;;;;;;;19.90;10.43;;;8.10;99.90;;;;;;5010387;28;20120;-67
2021/11/15 02:43:53;;;;;;;17.98;9.60;;;8.10;99.90;;;;;;5009742;28;20057;-67
2021/11/15 02:46:21;;;;;;;17.40;9.45;;;8.10;99.90;;;;;;5009649;28;20392;-67
2021/11/15 02:48:48;;;;;;;19.70;9.48;;;8.00;99.90;;;;;;5009966;28;20116;-67
2021/11/15 02:51:15;;;;;;;16.27;8.88;;;8.10;99.90;;;;;;5009867;28;20042;-67
2021/11/15 02:53:43;;;;;;;16.42;9.45;;;8.10;99.90;;;;;;5010087;28;20457;-67
2021/11/15 02:56:12;;;;;;;18.98;10.10;;;8.10;99.90;;;;;;5009923;28;20049;-67
2021/11/15 02:58:40;;;;;;;19.10;9.65;;;8.00;99.90;;;;;;5010099;28;20089;-67
2021/11/15 03:01:09;;;;;;;17.08;10.05;;;8.10;99.90;;;;;;5009501;28;20046;-67
2021/11/15 03:03:36;;;;;;;19.13;9.63;;;8.10;99.90;;;;;;5009712;28;20107;-67
2021/11/15 03:06:04;;;;;;;17.38;9.93;;;8.10;99.90;;;;;;5009371;28;20143;-67
2021/11/15 03:08:31;;;;;;;19.65;10.55;;;8.10;99.90;;;;;;5010315;28;20438;-67
2021/11/15 03:11:00;;;;;;;18.75;10.20;;;8.00;99.90;;;;;;5009948;28;20046;-67
2021/11/15 03:13:32;;;;;;;20.98;10.45;;;8.00;99.90;;;;;;5009572;28;20050;-67
2021/11/15 03:16:00;;;;;;;18.90;10.43;;;8.10;99.90;;;;;;5009636;28;20112;-68
2021/11/15 03:18:28;;;;;;;18.23;9.93;;;8.00;99.90;;;;;;5009670;28;20050;-67
2021/11/15 03:20:59;;;;;;;17.25;8.93;;;8.00;99.90;;;;;;5009480;28;20304;-67
2021/11/15 03:23:28;;;;;;;14.65;8.07;;;8.10;99.90;;;;;;5009443;28;20053;-69
2021/11/15 03:25:56;;;;;;;16.40;9.40;;;8.00;99.90;;;;;;5009188;28;20046;-67
2021/11/15 03:28:26;;;;;;;17.52;9.23;;;8.00;99.90;;;;;;5009762;28;20054;-67
2021/11/15 03:30:58;;;;;;;16.77;9.00;;;8.00;99.90;;;;;;5009957;28;20081;-67
2021/11/15 03:33:29;;;;;;;16.20;8.63;;;8.00;99.90;;;;;;5009392;28;20112;-67
2021/11/15 03:35:56;;;;;;;15.40;8.80;;;8.00;99.90;;;;;;5008953;28;20050;-67
2021/11/15 03:38:23;;;;;;;18.42;9.50;;;8.00;99.90;;;;;;5009747;28;20050;-67
2021/11/15 03:40:50;;;;;;;15.77;9.27;;;8.00;99.90;;;;;;5013249;28;20498;-67
2021/11/15 03:43:17;;;;;;;17.15;8.73;;;8.00;99.90;;;;;;5013143;28;20045;-67
2021/11/15 03:45:45;;;;;;;14.75;8.65;;;8.00;99.90;;;;;;5012725;28;20061;-67
2021/11/15 03:48:14;;;;;;;14.70;8.38;;;8.00;99.90;;;;;;5013088;28;20065;-67
2021/11/15 03:50:41;;;;;;;16.48;8.30;;;8.00;99.90;;;;;;5013189;28;20050;-67
2021/11/15 03:53:10;;;;;;;17.45;9.05;;;7.90;99.90;;;;;;5012974;28;20049;-67
2021/11/15 03:55:38;;;;;;;17.25;8.35;;;8.00;99.90;;;;;;5012461;28;20045;-67
2021/11/15 03:58:06;;;;;;;17.92;9.05;;;7.90;99.90;;;;;;5013119;28;20573;-67
2021/11/15 04:00:35;;;;;;;17.98;8.43;;;7.90;99.90;;;;;;5012606;28;20114;-67
2021/11/15 04:03:10;;;;;;;15.43;8.25;;;7.90;99.90;;;;;;5012671;28;20046;-67
2021/11/15 04:05:44;;;;;;;15.43;7.50;;;7.90;99.90;;;;;;5012640;28;20057;-67
2021/11/15 04:08:11;;;;;;;14.77;8.32;;;7.90;99.90;;;;;;5012961;28;20092;-67
2021/11/15 04:10:41;;;;;;;15.13;7.65;;;7.90;99.90;;;;;;5012519;28;20048;-67
2021/11/15 04:13:12;;;;;;;17.10;8.45;;;7.80;99.90;;;;;;5012199;28;20398;-67
2021/11/15 04:15:39;;;;;;;18.92;8.68;;;7.80;99.90;;;;;;5012432;28;20053;-67
2021/11/15 04:18:12;;;;;;;15.00;8.85;;;7.90;99.90;;;;;;5012326;28;20054;-67
2021/11/15 04:20:42;;;;;;;17.08;8.80;;;7.80;99.90;;;;;;5012322;28;20120;-67
2021/11/15 04:23:09;;;;;;;16.20;8.68;;;7.80;99.90;;;;;;5012296;28;20536;-67
2021/11/15 04:25:36;;;;;;;15.20;8.40;;;7.80;99.90;;;;;;5011689;28;20104;-67
2021/11/15 04:28:03;;;;;;;18.55;9.57;;;7.80;99.90;;;;;;5012507;28;20072;-67
2021/11/15 04:30:31;;;;;;;16.83;9.38;;;7.80;99.90;;;;;;5013564;28;20054;-67
2021/11/15 04:33:00;;;;;;;17.05;8.65;;;7.80;99.90;;;;;;5012488;28;20049;-68
2021/11/15 04:35:27;;;;;;;17.27;9.57;;;7.80;99.90;;;;;;5011622;28;20049;-67
2021/11/15 04:37:56;;;;;;;17.75;9.65;;;7.80;99.90;;;;;;5012088;28;20054;-68
2021/11/15 04:40:23;;;;;;;17.88;9.30;;;7.80;99.90;;;;;;5011683;28;20049;-67
2021/11/15 04:42:50;;;;;;;18.73;9.18;;;7.80;99.90;;;;;;5011915;28;20124;-67
2021/11/15 04:45:17;;;;;;;19.10;9.10;;;7.70;99.90;;;;;;5011240;28;20085;-67
2021/11/15 04:47:44;;;;;;;15.48;8.85;;;7.80;99.90;;;;;;5011330;28;20050;-67
2021/11/15 04:50:12;;;;;;;17.75;9.30;;;7.70;99.90;;;;;;5011412;28;20056;-67
2021/11/15 04:52:39;;;;;;;14.00;8.20;;;7.70;99.90;;;;;;5011634;28;20466;-67
2021/11/15 04:55:11;;;;;;;15.90;9.35;;;7.70;99.90;;;;;;5011383;28;20062;-67
2021/11/15 04:57:38;;;;;;;16.85;9.30;;;7.70;99.90;;;;;;5011484;28;20054;-67
2021/11/15 05:00:06;;;;;;;17.35;9.40;;;7.70;99.90;;;;;;5011405;28;20507;-68
2021/11/15 05:02:33;;;;;;;20.35;9.35;;;7.70;99.90;;;;;;5011205;28;20049;-67
2021/11/15 05:05:00;;;;;;;20.15;9.68;;;7.70;99.90;;;;;;5011145;28;20050;-67
2021/11/15 05:07:27;;;;;;;18.60;9.85;;;7.60;99.90;;;;;;5011353;28;20108;-67
2021/11/15 05:09:54;;;;;;;18.05;9.35;;;7.70;99.90;;;;;;5011419;28;20049;-67
2021/11/15 05:12:23;;;;;;;16.65;8.73;;;7.60;99.90;;;;;;5011282;28;20144;-67
2021/11/15 05:14:50;;;;;;;20.80;10.23;;;7.60;99.90;;;;;;5010921;28;20137;-67
2021/11/15 05:17:17;;;;;;;19.85;10.43;;;7.60;99.90;;;;;;5011297;28;20104;-67
2021/11/15 05:19:45;;;;;;;19.13;10.25;;;7.60;99.90;;;;;;5012285;28;20407;-67
2021/11/15 05:22:12;;;;;;;23.73;9.88;;;7.70;99.90;;;;;;5011265;28;20048;-67
2021/11/15 05:24:39;;;;;;;22.67;10.52;;;7.60;99.90;;;;;;5011229;28;20498;-67
2021/11/15 05:27:07;;;;;;;18.55;9.27;;;7.70;99.90;;;;;;5010873;28;20050;-68
2021/11/15 05:29:35;;;;;;;17.73;9.65;;;7.70;99.90;;;;;;5010996;28;20514;-67
2021/11/15 05:32:03;;;;;;;19.52;9.90;;;7.60;99.90;;;;;;5010758;28;20046;-67
2021/11/15 05:34:29;;;;;;;17.58;10.07;;;7.60;99.90;;;;;;5010894;28;20046;-67
2021/11/15 05:36:56;;;;;;;21.40;10.63;;;7.60;99.90;;;;;;5010543;28;20046;-67
2021/11/15 11:42:05;;;;;;;29.15;15.30;;;8.70;99.90;;;;;;5047545;28;20132;-66
2021/11/15 11:44:33;;;;;;;33.05;16.33;;;8.80;99.90;;;;;;5048241;28;20459;-66
2021/11/15 11:47:02;;;;;;;29.38;15.30;;;8.70;99.90;;;;;;5049331;28;20099;-65
2021/11/15 11:49:29;;;;;;;33.60;16.98;;;8.80;99.90;;;;;;5049534;28;20566;-67
2021/11/15 11:51:59;;;;;;;33.92;16.00;;;8.90;99.90;;;;;;5049986;28;20371;-66
2021/11/15 11:54:29;;;;;;;34.28;15.77;;;8.90;99.90;;;;;;5049245;28;20057;-66
2021/11/15 11:57:06;;;;;;;34.63;15.35;;;8.80;99.90;;;;;;5049121;28;20211;-66
2021/11/15 11:59:34;;;;;;;36.15;16.40;;;8.80;99.90;;;;;;5049750;28;20048;-66
2021/11/15 12:02:05;;;;;;;33.60;14.63;;;8.80;99.90;;;;;;5052161;28;20044;-66
2021/11/15 12:04:32;;;;;;;33.75;16.70;;;8.80;99.90;;;;;;5053183;28;20460;-66
2021/11/15 12:06:59;;;;;;;28.92;14.73;;;8.80;99.90;;;;;;5053118;28;20053;-66
2021/11/15 12:09:45;;;;;;;28.83;15.35;;;8.80;99.90;;;;;;5053272;28;20049;-66
2021/11/15 12:12:13;;;;;;;29.80;15.43;;;8.90;99.90;;;;;;5052967;28;20045;-70
2021/11/15 12:14:42;;;;;;;29.65;14.43;;;8.90;99.90;;;;;;5052932;28;20053;-67
2021/11/15 12:17:11;;;;;;;30.08;14.05;;;9.00;99.90;;;;;;5052206;28;20103;-66
2021/11/15 12:20:14;;;;;;;27.83;13.75;;;9.00;99.90;;;;;;5052479;28;20501;-66
2021/11/15 12:23:11;;;;;;;28.33;14.00;;;9.20;99.90;;;;;;5052122;28;20408;-66
2021/11/15 12:25:38;;;;;;;26.70;13.10;;;8.90;99.90;;;;;;5051682;28;20052;-66
2021/11/15 12:28:07;;;;;;;25.65;12.98;;;9.10;99.90;;;;;;5052669;28;20083;-66
2021/11/15 12:30:36;;;;;;;27.55;13.38;;;9.00;99.90;;;;;;5052835;28;20471;-66
2021/11/15 12:33:27;;;;;;;30.45;14.40;;;9.00;99.90;;;;;;5052429;28;20102;-66
2021/11/15 12:36:04;;;;;;;26.58;13.45;;;9.20;99.90;;;;;;5052071;28;20382;-66
2021/11/15 12:38:33;;;;;;;27.10;13.93;;;9.20;99.90;;;;;;5052487;28;20131;-66
2021/11/15 12:41:01;;;;;;;26.95;12.95;;;9.10;99.90;;;;;;5052639;28;20115;-66
2021/11/15 12:43:29;;;;;;;27.92;12.95;;;9.20;99.90;;;;;;5052520;28;20419;-66
2021/11/15 12:46:10;;;;;;;25.70;13.45;;;9.30;99.90;;;;;;5052050;28;20436;-66
2021/11/15 12:48:38;;;;;;;25.23;13.10;;;9.20;99.90;;;;;;5052502;28;20057;-66
2021/11/15 12:51:17;;;;;;;23.63;12.40;;;9.30;99.90;;;;;;5052304;28;20061;-66
2021/11/15 12:53:46;;;;;;;25.70;12.95;;;9.20;99.90;;;;;;5052267;28;20099;-67
2021/11/15 12:56:15;;;;;;;25.92;13.38;;;9.10;99.90;;;;;;5051641;28;20053;-66
2021/11/15 12:58:51;;;;;;;27.05;12.93;;;9.20;99.90;;;;;;5052256;28;20566;-66
2021/11/15 13:01:21;;;;;;;22.63;12.27;;;9.20;99.90;;;;;;5052149;28;20057;-66
2021/11/15 13:03:48;;;;;;;27.38;12.95;;;9.20;99.90;;;;;;5051806;28;20467;-66
2021/11/15 13:06:16;;;;;;;25.50;12.85;;;9.10;99.90;;;;;;5051197;28;20408;-66
2021/11/15 13:08:45;;;;;;;26.05;12.65;;;9.10;99.90;;;;;;5052290;28;20049;-66
2021/11/15 13:11:13;;;;;;;23.50;12.05;;;9.00;99.90;;;;;;5051504;28;20049;-66
2021/11/15 13:13:40;;;;;;;23.00;11.65;;;9.00;99.90;;;;;;5051574;28;20098;-66
2021/11/15 13:16:08;;;;;;;24.98;13.10;;;9.20;99.90;;;;;;5051258;28;20045;-66
2021/11/15 13:18:36;;;;;;;28.02;13.20;;;9.40;99.90;;;;;;5051809;28;20049;-68
2021/11/15 13:21:08;;;;;;;26.95;12.95;;;9.30;99.90;;;;;;5051420;28;20412;-67
2021/11/15 13:23:35;;;;;;;24.67;12.75;;;9.30;99.90;;;;;;5051761;28;20091;-67
2021/11/15 13:26:03;;;;;;;26.00;14.07;;;9.30;99.90;;;;;;5052993;28;20052;-67
2021/11/15 13:28:31;;;;;;;24.60;13.13;;;9.30;99.90;;;;;;5053457;28;20053;-67
2021/11/15 13:30:58;;;;;;;25.33;13.68;;;9.40;99.90;;;;;;5051419;28;20056;-67
2021/11/15 13:33:26;;;;;;;28.50;14.30;;;9.30;99.90;;;;;;5051466;28;20053;-67
2021/11/15 13:35:54;;;;;;;27.75;14.10;;;9.20;99.90;;;;;;5050779;28;20103;-67
2021/11/15 13:38:21;;;;;;;25.98;13.15;;;9.30;99.90;;;;;;5051184;28;20459;-67
2021/11/15 13:40:48;;;;;;;26.58;14.10;;;9.30;99.90;;;;;;5051249;28;20128;-67
2021/11/15 13:43:19;;;;;;;26.60;13.68;;;9.40;99.90;;;;;;5050498;28;20476;-67
2021/11/15 13:45:47;;;;;;;24.15;13.25;;;9.30;99.90;;;;;;5049852;28;20053;-67
2021/11/15 13:48:16;;;;;;;25.15;12.68;;;9.20;99.90;;;;;;5050238;28;20102;-67
2021/11/15 13:50:45;;;;;;;28.80;15.23;;;9.20;99.90;;;;;;5050709;28;20045;-67
2021/11/15 13:53:12;;;;;;;31.52;15.90;;;9.20;99.90;;;;;;5049894;28;20056;-67
2021/11/15 13:55:39;;;;;;;36.15;16.10;;;9.40;99.90;;;;;;5046527;28;20118;-66
2021/11/15 13:58:06;;;;;;;33.95;17.45;;;9.30;99.90;;;;;;5046250;28;20536;-67
2021/11/15 14:00:33;;;;;;;34.50;16.92;;;9.30;99.90;;;;;;5046371;28;20052;-67
2021/11/15 14:03:00;;;;;;;28.25;15.95;;;9.40;99.90;;;;;;5046167;28;20052;-67
2021/11/15 14:05:27;;;;;;;35.72;16.77;;;9.30;99.90;;;;;;5045629;28;20114;-67
2021/11/15 14:07:56;;;;;;;32.10;16.30;;;9.20;99.90;;;;;;5046166;28;20049;-67
2021/11/15 14:10:23;;;;;;;30.52;15.93;;;9.20;99.90;;;;;;5047850;28;20049;-67
2021/11/15 14:12:50;;;;;;;34.55;16.45;;;9.20;99.90;;;;;;5050192;28;20049;-67
2021/11/15 14:15:17;;;;;;;32.58;15.98;;;9.10;99.90;;;;;;5059073;28;20497;-67
2021/11/15 14:17:44;;;;;;;32.72;16.17;;;9.00;99.90;;;;;;5064405;28;20075;-67
2021/11/15 14:20:13;;;;;;;32.58;16.77;;;9.00;99.90;;;;;;5055887;28;20052;-67
2021/11/15 14:22:42;;;;;;;34.50;16.27;;;9.00;99.90;;;;;;5051193;28;20049;-68
2021/11/15 14:25:12;;;;;;;31.35;16.23;;;9.00;99.90;;;;;;5049233;28;20095;-67
2021/11/15 14:27:39;;;;;;;33.92;16.70;;;8.90;99.90;;;;;;5049850;28;20554;-67
2021/11/15 14:30:09;;;;;;;35.90;16.65;;;8.90;99.90;;;;;;5050011;28;20052;-66
2021/11/15 14:32:36;;;;;;;33.40;17.13;;;8.90;99.90;;;;;;5050168;28;20114;-67
2021/11/15 14:35:04;;;;;;;30.98;16.45;;;8.90;99.90;;;;;;5049557;28;20112;-67
2021/11/15 14:37:31;;;;;;;34.38;16.50;;;9.00;99.90;;;;;;5049478;28;20114;-67
2021/11/15 14:39:59;;;;;;;33.13;16.85;;;8.90;99.90;;;;;;5049872;28;20121;-67
2021/11/15 14:42:27;;;;;;;32.85;15.38;;;8.80;99.90;;;;;;5049607;28;20489;-67
2021/11/15 14:44:54;;;;;;;32.97;16.80;;;8.80;99.90;;;;;;5049382;28;20107;-67
2021/11/15 14:47:24;;;;;;;33.47;17.58;;;8.80;99.90;;;;;;5049594;28;20102;-67
2021/11/15 14:49:52;;;;;;;38.00;18.13;;;8.90;99.90;;;;;;5049809;28;20052;-67
2021/11/15 14:52:21;;;;;;;36.67;17.90;;;8.80;99.90;;;;;;5049785;28;20140;-67
2021/11/15 14:54:48;;;;;;;33.35;17.40;;;8.80;99.90;;;;;;5049542;28;20099;-67
2021/11/15 14:57:15;;;;;;;34.95;17.15;;;8.80;99.90;;;;;;5048714;28;20056;-67
2021/11/15 14:59:44;;;;;;;32.58;16.63;;;8.80;99.90;;;;;;5041551;28;20099;-67
2021/11/15 15:02:12;;;;;;;36.85;19.92;;;8.70;99.90;;;;;;5049737;28;20099;-68
2021/11/15 15:04:40;;;;;;;34.95;16.70;;;8.80;99.90;;;;;;5052966;28;20414;-67
2021/11/15 15:07:08;;;;;;;30.83;16.35;;;8.70;99.90;;;;;;5049335;28;20057;-67
2021/11/15 15:09:38;;;;;;;31.77;15.88;;;8.70;99.90;;;;;;5049498;28;20107;-67
2021/11/15 15:12:07;;;;;;;33.75;17.42;;;8.60;99.90;;;;;;5052888;28;20044;-67
2021/11/15 15:14:35;;;;;;;33.33;16.48;;;8.50;99.90;;;;;;5049385;28;20060;-67
2021/11/15 15:17:07;;;;;;;30.70;15.68;;;8.50;99.90;;;;;;5049013;28;20064;-67
2021/11/15 15:19:37;;;;;;;32.28;16.20;;;8.50;99.90;;;;;;5049346;28;20100;-67
2021/11/15 15:22:05;;;;;;;34.03;15.95;;;8.50;99.90;;;;;;5049430;28;20501;-67
2021/11/15 15:24:32;;;;;;;35.22;17.13;;;8.50;99.90;;;;;;5049151;28;20077;-67
2021/11/15 15:26:59;;;;;;;32.55;16.83;;;8.40;99.90;;;;;;5048844;28;20114;-68
2021/11/15 15:29:26;;;;;;;34.42;16.83;;;8.40;99.90;;;;;;5049254;28;20095;-67
2021/11/15 15:31:54;;;;;;;37.35;16.58;;;8.50;99.90;;;;;;5049025;28;20567;-67
2021/11/15 15:34:22;;;;;;;30.63;15.93;;;8.30;99.90;;;;;;5049006;28;20049;-67
2021/11/15 15:36:49;;;;;;;35.22;16.77;;;8.30;99.90;;;;;;5052403;28;20049;-67
2021/11/15 15:39:17;;;;;;;30.38;15.27;;;8.30;99.90;;;;;;5053395;28;20178;-67
2021/11/15 15:41:45;;;;;;;32.47;16.05;;;8.30;99.90;;;;;;5052921;28;20049;-67
2021/11/15 15:44:12;;;;;;;32.88;16.48;;;8.30;99.90;;;;;;5052738;28;20059;-67
2021/11/15 15:46:40;;;;;;;35.05;17.05;;;8.20;99.90;;;;;;5052504;28;20572;-67
2021/11/15 15:49:07;;;;;;;30.80;16.65;;;8.20;99.90;;;;;;5053497;28;20053;-68
2021/11/15 15:51:36;;;;;;;32.67;17.15;;;8.20;99.90;;;;;;5052651;28;20098;-67
2021/11/15 15:54:04;;;;;;;34.42;17.00;;;8.10;99.90;;;;;;5053290;28;20049;-67
2021/11/15 15:56:31;;;;;;;33.20;16.30;;;8.10;99.90;;;;;;5052628;28;20053;-67
2021/11/15 15:58:59;;;;;;;34.22;16.45;;;8.10;99.90;;;;;;5052758;28;20567;-67
2021/11/15 16:01:26;;;;;;;34.95;17.42;;;8.10;99.90;;;;;;5053090;28;20110;-67
2021/11/15 16:03:58;;;;;;;37.45;16.98;;;8.10;99.90;;;;;;5053158;28;20078;-67
2021/11/15 16:06:39;;;;;;;37.17;16.50;;;8.10;99.90;;;;;;5053237;28;20088;-67
2021/11/15 16:09:23;;;;;;;32.80;16.77;;;8.00;99.90;;;;;;5052920;28;20057;-67
2021/11/15 16:12:06;;;;;;;32.08;16.65;;;8.00;99.90;;;;;;5053345;28;20060;-67
2021/11/15 16:14:52;;;;;;;33.67;17.38;;;8.10;99.90;;;;;;5053417;28;20052;-67
2021/11/15 16:17:21;;;;;;;35.33;17.67;;;8.00;99.90;;;;;;5052644;28;20573;-67
2021/11/15 16:19:48;;;;;;;36.92;16.55;;;8.00;99.90;;;;;;5053020;28;20060;-67
2021/11/15 16:22:16;;;;;;;37.35;17.95;;;8.10;99.90;;;;;;5052853;28;20106;-67
2021/11/15 16:24:44;;;;;;;34.00;16.60;;;8.10;99.90;;;;;;5053032;28;20053;-67
2021/11/15 16:27:11;;;;;;;38.03;17.88;;;8.10;99.90;;;;;;5052378;28;20102;-67
2021/11/15 16:29:39;;;;;;;37.40;19.27;;;8.10;99.90;;;;;;5052972;28;20061;-67
2021/11/15 16:32:07;;;;;;;35.78;17.92;;;8.10;99.90;;;;;;5052386;28;20053;-67
2021/11/15 16:34:33;;;;;;;34.10;17.23;;;8.00;99.90;;;;;;5052616;28;20053;-67
2021/11/15 16:37:01;;;;;;;34.50;17.60;;;8.00;99.90;;;;;;5052103;28;20049;-67
2021/11/15 16:39:27;;;;;;;39.13;18.38;;;7.90;99.90;;;;;;5053037;28;20135;-67
2021/11/15 16:41:56;;;;;;;40.20;18.13;;;7.90;99.90;;;;;;5052624;28;20056;-67
2021/11/15 16:44:23;;;;;;;37.17;16.73;;;7.90;99.90;;;;;;5052390;28;20107;-67
2021/11/15 16:46:53;;;;;;;35.22;18.15;;;7.80;99.90;;;;;;5050728;28;20053;-67
2021/11/15 16:49:21;;;;;;;36.40;17.92;;;7.80;99.90;;;;;;5052124;28;20052;-67
2021/11/15 16:51:49;;;;;;;37.53;18.25;;;7.90;99.90;;;;;;5052215;28;20052;-67
2021/11/15 16:54:16;;;;;;;33.83;18.48;;;7.80;99.90;;;;;;5052313;28;20124;-67
2021/11/15 16:56:44;;;;;;;28.02;14.20;;;7.80;99.90;;;;;;5051692;28;20045;-67
2021/11/15 16:59:13;;;;;;;37.17;15.80;;;7.70;99.90;;;;;;5052121;28;20098;-67
2021/11/15 17:01:40;;;;;;;32.42;15.00;;;7.80;99.90;;;;;;5052115;28;20060;-67
2021/11/15 17:04:07;;;;;;;31.85;15.25;;;7.70;99.90;;;;;;5051719;28;20099;-67
2021/11/15 17:06:35;;;;;;;32.25;15.40;;;7.70;99.90;;;;;;5051764;28;20083;-67
2021/11/15 17:09:03;;;;;;;31.00;15.40;;;7.70;99.90;;;;;;5052420;28;20103;-67
2021/11/15 17:11:34;;;;;;;33.47;16.13;;;7.70;99.90;;;;;;5051883;28;20071;-67
2021/11/15 17:14:01;;;;;;;43.38;18.98;;;7.80;99.90;;;;;;5052650;28;20049;-67
2021/11/15 17:16:32;;;;;;;38.53;17.83;;;7.70;99.90;;;;;;5050630;28;20044;-67
2021/11/15 17:18:59;;;;;;;40.88;17.52;;;7.70;99.90;;;;;;5051576;28;20102;-67
2021/11/15 17:21:29;;;;;;;41.33;18.45;;;7.70;99.90;;;;;;5053256;28;20049;-68
2021/11/15 17:23:58;;;;;;;35.47;16.17;;;7.70;99.90;;;;;;5053162;28;20061;-68
2021/11/15 17:26:27;;;;;;;35.38;16.67;;;7.60;99.90;;;;;;5050965;28;20079;-67
2021/11/15 17:28:56;;;;;;;37.42;15.73;;;7.60;99.90;;;;;;5051835;28;20049;-68
2021/11/15 17:31:24;;;;;;;33.45;16.27;;;7.60;99.90;;;;;;5050958;28;20080;-67
2021/11/15 17:33:53;;;;;;;36.05;16.40;;;7.60;99.90;;;;;;5051408;28;20053;-67
2021/11/15 17:36:21;;;;;;;36.40;16.65;;;7.60;99.90;;;;;;5050752;28;20087;-67
2021/11/15 17:38:49;;;;;;;30.23;15.23;;;7.50;99.90;;;;;;5051098;28;20044;-67
2021/11/15 23:42:35;;;;;;;48.35;21.23;;;7.20;99.90;;;;;;5073144;22;20499;-64
2021/11/15 23:45:04;;;;;;;47.40;21.38;;;7.20;99.90;;;;;;5048371;28;20045;-64
2021/11/15 23:47:32;;;;;;;44.90;20.90;;;7.20;99.90;;;;;;5049039;28;20052;-64
2021/11/15 23:49:59;;;;;;;47.88;20.67;;;7.30;99.90;;;;;;5049233;28;20115;-64
2021/11/15 23:52:28;;;;;;;50.47;22.63;;;7.20;99.90;;;;;;5048947;28;20550;-64
2021/11/15 23:54:55;;;;;;;49.05;21.13;;;7.30;99.90;;;;;;5048921;28;20056;-66
2021/11/15 23:57:22;;;;;;;47.33;21.60;;;7.20;99.90;;;;;;5051323;28;20098;-67
2021/11/15 23:59:50;;;;;;;47.90;21.90;;;7.20;99.90;;;;;;5052441;28;20056;-66
